sensor_id;sensor_type;location;lat;lon;timestamp;P1;durP1;ratioP1;P2;durP2;ratioP2
41755;SDS011;27435;48.480;9.258;2024-03-22T00:00:10;17.47;;;9.13;;
41755;SDS011;27435;48.480;9.258;2024-03-22T00:02:37;19.23;;;9.83;;
41755;SDS011;27435;48.480;9.258;2024-03-22T00:05:03;18.17;;;10.70;;
41755;SDS011;27435;48.480;9.258;2024-03-22T00:07:29;17.10;;;10.10;;
41755;SDS011;27435;48.480;9.258;2024-03-22T00:09:55;18.40;;;10.90;;
41755;SDS011;27435;48.480;9.258;2024-03-22T00:12:21;18.53;;;10.10;;
41755;SDS011;27435;48.480;9.258;2024-03-22T00:14:47;18.30;;;9.70;;
41755;SDS011;27435;48.480;9.258;2024-03-22T00:17:13;16.07;;;10.00;;
41755;SDS011;27435;48.480;9.258;2024-03-22T00:19:39;17.67;;;10.50;;
41755;SDS011;27435;48.480;9.258;2024-03-22T00:22:04;15.17;;;9.30;;
41755;SDS011;27435;48.480;9.258;2024-03-22T00:24:30;20.90;;;9.73;;
41755;SDS011;27435;48.480;9.258;2024-03-22T00:26:55;21.70;;;9.50;;
41755;SDS011;27435;48.480;9.258;2024-03-22T00:29:21;24.23;;;9.73;;
41755;SDS011;27435;48.480;9.258;2024-03-22T00:31:47;17.27;;;9.37;;
41755;SDS011;27435;48.480;9.258;2024-03-22T00:34:12;16.40;;;9.67;;
41755;SDS011;27435;48.480;9.258;2024-03-22T00:36:38;16.87;;;9.10;;
41755;SDS011;27435;48.480;9.258;2024-03-22T00:39:04;19.17;;;9.40;;
41755;SDS011;27435;48.480;9.258;2024-03-22T00:41:30;19.00;;;10.90;;
41755;SDS011;27435;48.480;9.258;2024-03-22T00:43:56;18.10;;;9.77;;
41755;SDS011;27435;48.480;9.258;2024-03-22T00:46:23;17.53;;;9.90;;
41755;SDS011;27435;48.480;9.258;2024-03-22T00:48:48;18.90;;;10.30;;
41755;SDS011;27435;48.480;9.258;2024-03-22T00:51:14;19.93;;;9.83;;
41755;SDS011;27435;48.480;9.258;2024-03-22T00:53:39;19.00;;;11.33;;
41755;SDS011;27435;48.480;9.258;2024-03-22T00:56:05;19.53;;;11.57;;
41755;SDS011;27435;48.480;9.258;2024-03-22T00:58:31;23.53;;;12.50;;
41755;SDS011;27435;48.480;9.258;2024-03-22T01:00:56;20.20;;;11.10;;
41755;SDS011;27435;48.480;9.258;2024-03-22T01:03:22;20.70;;;10.37;;
41755;SDS011;27435;48.480;9.258;2024-03-22T01:05:48;20.33;;;11.07;;
41755;SDS011;27435;48.480;9.258;2024-03-22T01:08:14;17.63;;;10.83;;
41755;SDS011;27435;48.480;9.258;2024-03-22T01:10:40;17.10;;;9.67;;
41755;SDS011;27435;48.480;9.258;2024-03-22T01:13:06;16.73;;;10.47;;
41755;SDS011;27435;48.480;9.258;2024-03-22T01:15:31;18.77;;;11.00;;
41755;SDS011;27435;48.480;9.258;2024-03-22T01:17:57;15.93;;;10.23;;
41755;SDS011;27435;48.480;9.258;2024-03-22T01:20:22;23.60;;;11.63;;
41755;SDS011;27435;48.480;9.258;2024-03-22T01:22:48;21.50;;;11.17;;
41755;SDS011;27435;48.480;9.258;2024-03-22T01:25:14;16.73;;;10.67;;
41755;SDS011;27435;48.480;9.258;2024-03-22T01:27:40;20.87;;;10.93;;
41755;SDS011;27435;48.480;9.258;2024-03-22T01:30:05;21.03;;;10.87;;
41755;SDS011;27435;48.480;9.258;2024-03-22T01:32:31;17.50;;;11.03;;
41755;SDS011;27435;48.480;9.258;2024-03-22T01:34:57;20.37;;;11.13;;
41755;SDS011;27435;48.480;9.258;2024-03-22T01:37:23;20.33;;;11.50;;
41755;SDS011;27435;48.480;9.258;2024-03-22T01:39:48;20.67;;;11.97;;
41755;SDS011;27435;48.480;9.258;2024-03-22T01:42:14;17.87;;;10.73;;
41755;SDS011;27435;48.480;9.258;2024-03-22T01:44:40;20.27;;;11.60;;
41755;SDS011;27435;48.480;9.258;2024-03-22T01:47:06;23.10;;;11.37;;
41755;SDS011;27435;48.480;9.258;2024-03-22T01:49:32;20.03;;;11.07;;
41755;SDS011;27435;48.480;9.258;2024-03-22T01:51:58;20.70;;;11.50;;
41755;SDS011;27435;48.480;9.258;2024-03-22T01:54:23;19.03;;;11.07;;
41755;SDS011;27435;48.480;9.258;2024-03-22T01:56:49;20.47;;;10.90;;
41755;SDS011;27435;48.480;9.258;2024-03-22T01:59:15;20.80;;;11.50;;
41755;SDS011;27435;48.480;9.258;2024-03-22T02:01:41;23.17;;;11.17;;
41755;SDS011;27435;48.480;9.258;2024-03-22T02:04:07;18.67;;;12.53;;
41755;SDS011;27435;48.480;9.258;2024-03-22T02:06:33;19.10;;;11.73;;
41755;SDS011;27435;48.480;9.258;2024-03-22T02:08:59;21.47;;;11.63;;
41755;SDS011;27435;48.480;9.258;2024-03-22T02:11:25;17.63;;;10.93;;
41755;SDS011;27435;48.480;9.258;2024-03-22T02:13:51;20.70;;;11.17;;
41755;SDS011;27435;48.480;9.258;2024-03-22T02:16:17;19.87;;;10.90;;
41755;SDS011;27435;48.480;9.258;2024-03-22T02:18:42;17.77;;;10.27;;
41755;SDS011;27435;48.480;9.258;2024-03-22T02:21:09;19.33;;;11.30;;
41755;SDS011;27435;48.480;9.258;2024-03-22T02:23:36;19.40;;;10.83;;
41755;SDS011;27435;48.480;9.258;2024-03-22T02:26:02;19.93;;;11.23;;
41755;SDS011;27435;48.480;9.258;2024-03-22T02:28:29;19.67;;;11.57;;
41755;SDS011;27435;48.480;9.258;2024-03-22T02:30:55;21.73;;;10.83;;
41755;SDS011;27435;48.480;9.258;2024-03-22T02:33:21;17.80;;;11.00;;
41755;SDS011;27435;48.480;9.258;2024-03-22T02:35:47;20.23;;;11.77;;
41755;SDS011;27435;48.480;9.258;2024-03-22T02:38:13;20.10;;;11.33;;
41755;SDS011;27435;48.480;9.258;2024-03-22T02:40:39;22.63;;;11.40;;
41755;SDS011;27435;48.480;9.258;2024-03-22T02:43:05;22.43;;;12.30;;
41755;SDS011;27435;48.480;9.258;2024-03-22T02:45:31;20.57;;;11.43;;
41755;SDS011;27435;48.480;9.258;2024-03-22T02:47:56;19.47;;;11.27;;
41755;SDS011;27435;48.480;9.258;2024-03-22T02:50:22;20.27;;;11.70;;
41755;SDS011;27435;48.480;9.258;2024-03-22T02:52:48;22.30;;;11.03;;
41755;SDS011;27435;48.480;9.258;2024-03-22T02:55:15;23.40;;;12.37;;
41755;SDS011;27435;48.480;9.258;2024-03-22T02:57:40;22.87;;;11.87;;
41755;SDS011;27435;48.480;9.258;2024-03-22T03:00:06;19.30;;;11.23;;
41755;SDS011;27435;48.480;9.258;2024-03-22T03:02:32;16.67;;;10.13;;
41755;SDS011;27435;48.480;9.258;2024-03-22T03:04:58;20.90;;;11.13;;
41755;SDS011;27435;48.480;9.258;2024-03-22T03:07:24;18.50;;;10.97;;
41755;SDS011;27435;48.480;9.258;2024-03-22T03:09:50;19.70;;;11.07;;
41755;SDS011;27435;48.480;9.258;2024-03-22T03:12:16;20.50;;;11.43;;
41755;SDS011;27435;48.480;9.258;2024-03-22T03:14:41;19.83;;;10.83;;
41755;SDS011;27435;48.480;9.258;2024-03-22T03:17:07;20.70;;;11.07;;
41755;SDS011;27435;48.480;9.258;2024-03-22T03:19:33;21.87;;;10.60;;
41755;SDS011;27435;48.480;9.258;2024-03-22T03:21:58;16.97;;;10.67;;
41755;SDS011;27435;48.480;9.258;2024-03-22T03:24:24;25.97;;;11.27;;
41755;SDS011;27435;48.480;9.258;2024-03-22T03:26:51;20.17;;;11.50;;
41755;SDS011;27435;48.480;9.258;2024-03-22T03:29:17;21.57;;;11.97;;
41755;SDS011;27435;48.480;9.258;2024-03-22T03:31:42;16.50;;;10.60;;
41755;SDS011;27435;48.480;9.258;2024-03-22T03:34:08;20.10;;;10.63;;
41755;SDS011;27435;48.480;9.258;2024-03-22T03:36:33;20.63;;;12.67;;
41755;SDS011;27435;48.480;9.258;2024-03-22T03:38:59;19.20;;;10.33;;
41755;SDS011;27435;48.480;9.258;2024-03-22T03:41:24;23.60;;;10.97;;
41755;SDS011;27435;48.480;9.258;2024-03-22T03:43:50;21.30;;;11.73;;
41755;SDS011;27435;48.480;9.258;2024-03-22T03:46:16;24.07;;;12.50;;
41755;SDS011;27435;48.480;9.258;2024-03-22T03:48:41;20.27;;;10.97;;
41755;SDS011;27435;48.480;9.258;2024-03-22T03:51:07;19.50;;;10.23;;
41755;SDS011;27435;48.480;9.258;2024-03-22T03:53:32;20.60;;;10.70;;
41755;SDS011;27435;48.480;9.258;2024-03-22T03:55:58;22.67;;;11.23;;
41755;SDS011;27435;48.480;9.258;2024-03-22T03:58:24;20.87;;;10.97;;
41755;SDS011;27435;48.480;9.258;2024-03-22T04:00:49;21.93;;;11.73;;
41755;SDS011;27435;48.480;9.258;2024-03-22T04:03:15;22.60;;;11.63;;
41755;SDS011;27435;48.480;9.258;2024-03-22T04:05:41;21.67;;;11.13;;
41755;SDS011;27435;48.480;9.258;2024-03-22T04:08:06;19.73;;;10.23;;
41755;SDS011;27435;48.480;9.258;2024-03-22T04:10:32;18.30;;;11.47;;
41755;SDS011;27435;48.480;9.258;2024-03-22T04:12:58;17.63;;;10.43;;
41755;SDS011;27435;48.480;9.258;2024-03-22T04:15:23;22.90;;;11.30;;
41755;SDS011;27435;48.480;9.258;2024-03-22T04:17:49;19.30;;;10.63;;
41755;SDS011;27435;48.480;9.258;2024-03-22T04:20:14;17.67;;;10.00;;
41755;SDS011;27435;48.480;9.258;2024-03-22T04:22:40;18.07;;;10.00;;
41755;SDS011;27435;48.480;9.258;2024-03-22T04:25:06;19.73;;;10.33;;
41755;SDS011;27435;48.480;9.258;2024-03-22T04:27:35;21.03;;;11.53;;
41755;SDS011;27435;48.480;9.258;2024-03-22T04:30:01;17.70;;;10.70;;
41755;SDS011;27435;48.480;9.258;2024-03-22T04:32:27;17.60;;;10.70;;
41755;SDS011;27435;48.480;9.258;2024-03-22T04:34:53;17.97;;;10.20;;
41755;SDS011;27435;48.480;9.258;2024-03-22T04:37:20;21.20;;;11.03;;
41755;SDS011;27435;48.480;9.258;2024-03-22T04:39:46;22.13;;;11.27;;
41755;SDS011;27435;48.480;9.258;2024-03-22T04:42:11;20.83;;;10.43;;
41755;SDS011;27435;48.480;9.258;2024-03-22T04:44:37;20.67;;;10.33;;
41755;SDS011;27435;48.480;9.258;2024-03-22T04:47:03;18.50;;;11.13;;
41755;SDS011;27435;48.480;9.258;2024-03-22T04:49:28;16.93;;;11.03;;
41755;SDS011;27435;48.480;9.258;2024-03-22T04:51:54;19.40;;;10.97;;
41755;SDS011;27435;48.480;9.258;2024-03-22T04:54:20;19.90;;;11.33;;
41755;SDS011;27435;48.480;9.258;2024-03-22T04:56:45;16.20;;;10.17;;
41755;SDS011;27435;48.480;9.258;2024-03-22T04:59:11;19.50;;;10.63;;
41755;SDS011;27435;48.480;9.258;2024-03-22T05:01:36;22.13;;;11.60;;
41755;SDS011;27435;48.480;9.258;2024-03-22T05:04:02;19.00;;;11.10;;
41755;SDS011;27435;48.480;9.258;2024-03-22T05:06:28;20.60;;;10.67;;
41755;SDS011;27435;48.480;9.258;2024-03-22T05:08:53;17.57;;;10.20;;
41755;SDS011;27435;48.480;9.258;2024-03-22T05:11:19;20.40;;;11.20;;
41755;SDS011;27435;48.480;9.258;2024-03-22T05:13:44;30.97;;;12.53;;
41755;SDS011;27435;48.480;9.258;2024-03-22T05:16:11;23.37;;;11.70;;
41755;SDS011;27435;48.480;9.258;2024-03-22T05:18:37;20.83;;;11.47;;
41755;SDS011;27435;48.480;9.258;2024-03-22T05:21:03;22.37;;;11.40;;
41755;SDS011;27435;48.480;9.258;2024-03-22T05:23:29;22.47;;;11.80;;
41755;SDS011;27435;48.480;9.258;2024-03-22T05:25:54;20.07;;;11.53;;
41755;SDS011;27435;48.480;9.258;2024-03-22T05:28:20;23.33;;;11.73;;
41755;SDS011;27435;48.480;9.258;2024-03-22T05:30:46;22.47;;;11.87;;
41755;SDS011;27435;48.480;9.258;2024-03-22T05:33:12;19.80;;;11.07;;
41755;SDS011;27435;48.480;9.258;2024-03-22T05:35:37;21.93;;;11.67;;
41755;SDS011;27435;48.480;9.258;2024-03-22T05:38:03;22.37;;;11.57;;
41755;SDS011;27435;48.480;9.258;2024-03-22T05:40:29;20.93;;;10.63;;
41755;SDS011;27435;48.480;9.258;2024-03-22T05:42:55;19.07;;;11.10;;
41755;SDS011;27435;48.480;9.258;2024-03-22T05:45:21;21.87;;;11.47;;
41755;SDS011;27435;48.480;9.258;2024-03-22T05:47:50;21.83;;;11.97;;
41755;SDS011;27435;48.480;9.258;2024-03-22T05:50:15;25.87;;;12.63;;
41755;SDS011;27435;48.480;9.258;2024-03-22T05:52:41;22.27;;;11.43;;
41755;SDS011;27435;48.480;9.258;2024-03-22T05:55:07;23.03;;;12.63;;
41755;SDS011;27435;48.480;9.258;2024-03-22T05:57:32;23.77;;;13.07;;
41755;SDS011;27435;48.480;9.258;2024-03-22T05:59:58;19.63;;;11.90;;
41755;SDS011;27435;48.480;9.258;2024-03-22T06:02:24;24.90;;;12.70;;
41755;SDS011;27435;48.480;9.258;2024-03-22T06:04:49;19.67;;;12.37;;
41755;SDS011;27435;48.480;9.258;2024-03-22T06:07:15;24.43;;;12.50;;
41755;SDS011;27435;48.480;9.258;2024-03-22T06:09:42;24.33;;;12.77;;
41755;SDS011;27435;48.480;9.258;2024-03-22T06:12:14;22.63;;;12.83;;
41755;SDS011;27435;48.480;9.258;2024-03-22T06:14:40;22.47;;;12.60;;
41755;SDS011;27435;48.480;9.258;2024-03-22T06:17:07;20.17;;;11.93;;
41755;SDS011;27435;48.480;9.258;2024-03-22T06:19:34;18.83;;;12.37;;
41755;SDS011;27435;48.480;9.258;2024-03-22T06:22:00;19.93;;;11.73;;
41755;SDS011;27435;48.480;9.258;2024-03-22T06:24:26;18.00;;;11.53;;
41755;SDS011;27435;48.480;9.258;2024-03-22T06:26:51;21.07;;;11.20;;
41755;SDS011;27435;48.480;9.258;2024-03-22T06:29:17;20.17;;;11.63;;
41755;SDS011;27435;48.480;9.258;2024-03-22T06:31:43;21.23;;;12.10;;
41755;SDS011;27435;48.480;9.258;2024-03-22T06:34:08;21.30;;;11.50;;
41755;SDS011;27435;48.480;9.258;2024-03-22T06:36:34;20.03;;;11.30;;
41755;SDS011;27435;48.480;9.258;2024-03-22T06:39:00;19.17;;;12.13;;
41755;SDS011;27435;48.480;9.258;2024-03-22T06:41:27;20.53;;;11.93;;
41755;SDS011;27435;48.480;9.258;2024-03-22T06:43:53;19.03;;;10.90;;
41755;SDS011;27435;48.480;9.258;2024-03-22T06:46:18;20.83;;;11.67;;
41755;SDS011;27435;48.480;9.258;2024-03-22T06:48:44;22.23;;;12.10;;
41755;SDS011;27435;48.480;9.258;2024-03-22T06:51:11;26.07;;;14.50;;
41755;SDS011;27435;48.480;9.258;2024-03-22T06:53:37;20.43;;;11.80;;
41755;SDS011;27435;48.480;9.258;2024-03-22T06:56:03;21.73;;;12.30;;
41755;SDS011;27435;48.480;9.258;2024-03-22T06:58:29;20.83;;;11.77;;
41755;SDS011;27435;48.480;9.258;2024-03-22T07:00:54;21.20;;;11.63;;
41755;SDS011;27435;48.480;9.258;2024-03-22T07:03:20;16.57;;;10.00;;
41755;SDS011;27435;48.480;9.258;2024-03-22T07:05:46;18.83;;;11.37;;
41755;SDS011;27435;48.480;9.258;2024-03-22T07:08:12;17.30;;;9.60;;
41755;SDS011;27435;48.480;9.258;2024-03-22T07:10:39;23.20;;;10.27;;
41755;SDS011;27435;48.480;9.258;2024-03-22T07:13:05;18.77;;;9.40;;
41755;SDS011;27435;48.480;9.258;2024-03-22T07:15:31;17.13;;;9.57;;
41755;SDS011;27435;48.480;9.258;2024-03-22T07:17:57;19.47;;;9.40;;
41755;SDS011;27435;48.480;9.258;2024-03-22T07:20:23;14.27;;;9.20;;
41755;SDS011;27435;48.480;9.258;2024-03-22T07:22:49;15.10;;;8.57;;
41755;SDS011;27435;48.480;9.258;2024-03-22T07:25:15;14.17;;;7.40;;
41755;SDS011;27435;48.480;9.258;2024-03-22T07:27:41;16.93;;;8.17;;
41755;SDS011;27435;48.480;9.258;2024-03-22T07:30:06;14.50;;;7.57;;
41755;SDS011;27435;48.480;9.258;2024-03-22T07:32:32;11.90;;;7.63;;
41755;SDS011;27435;48.480;9.258;2024-03-22T07:34:58;17.40;;;7.97;;
41755;SDS011;27435;48.480;9.258;2024-03-22T07:37:23;15.87;;;7.83;;
41755;SDS011;27435;48.480;9.258;2024-03-22T07:39:49;14.77;;;6.93;;
41755;SDS011;27435;48.480;9.258;2024-03-22T07:42:15;14.83;;;7.83;;
41755;SDS011;27435;48.480;9.258;2024-03-22T07:44:41;18.77;;;8.37;;
41755;SDS011;27435;48.480;9.258;2024-03-22T07:47:07;11.73;;;7.47;;
41755;SDS011;27435;48.480;9.258;2024-03-22T07:49:32;17.83;;;8.17;;
41755;SDS011;27435;48.480;9.258;2024-03-22T07:51:59;13.90;;;7.53;;
41755;SDS011;27435;48.480;9.258;2024-03-22T07:54:25;15.03;;;7.57;;
41755;SDS011;27435;48.480;9.258;2024-03-22T07:56:51;11.33;;;7.20;;
41755;SDS011;27435;48.480;9.258;2024-03-22T07:59:16;10.90;;;7.13;;
41755;SDS011;27435;48.480;9.258;2024-03-22T08:01:42;11.87;;;6.70;;
41755;SDS011;27435;48.480;9.258;2024-03-22T08:04:08;12.40;;;6.57;;
41755;SDS011;27435;48.480;9.258;2024-03-22T08:06:33;12.23;;;7.87;;
41755;SDS011;27435;48.480;9.258;2024-03-22T08:08:59;16.53;;;7.73;;
41755;SDS011;27435;48.480;9.258;2024-03-22T08:11:26;13.67;;;7.00;;
41755;SDS011;27435;48.480;9.258;2024-03-22T08:13:52;17.57;;;7.57;;
41755;SDS011;27435;48.480;9.258;2024-03-22T08:16:17;10.13;;;6.70;;
41755;SDS011;27435;48.480;9.258;2024-03-22T08:18:44;12.30;;;6.80;;
41755;SDS011;27435;48.480;9.258;2024-03-22T08:21:10;15.83;;;7.77;;
41755;SDS011;27435;48.480;9.258;2024-03-22T08:23:35;12.00;;;6.60;;
41755;SDS011;27435;48.480;9.258;2024-03-22T08:26:01;11.70;;;7.10;;
41755;SDS011;27435;48.480;9.258;2024-03-22T08:28:27;11.43;;;6.43;;
41755;SDS011;27435;48.480;9.258;2024-03-22T08:30:52;14.53;;;6.90;;
41755;SDS011;27435;48.480;9.258;2024-03-22T08:33:18;15.80;;;7.53;;
41755;SDS011;27435;48.480;9.258;2024-03-22T08:35:44;12.80;;;7.30;;
41755;SDS011;27435;48.480;9.258;2024-03-22T08:38:10;14.00;;;6.60;;
41755;SDS011;27435;48.480;9.258;2024-03-22T08:40:38;15.40;;;7.13;;
41755;SDS011;27435;48.480;9.258;2024-03-22T08:43:05;15.03;;;7.30;;
41755;SDS011;27435;48.480;9.258;2024-03-22T08:45:32;15.17;;;7.13;;
41755;SDS011;27435;48.480;9.258;2024-03-22T08:47:58;16.73;;;6.40;;
41755;SDS011;27435;48.480;9.258;2024-03-22T08:50:23;15.00;;;6.20;;
41755;SDS011;27435;48.480;9.258;2024-03-22T08:52:50;10.43;;;6.67;;
41755;SDS011;27435;48.480;9.258;2024-03-22T08:55:16;11.83;;;6.23;;
41755;SDS011;27435;48.480;9.258;2024-03-22T08:57:42;13.63;;;6.53;;
41755;SDS011;27435;48.480;9.258;2024-03-22T09:00:08;11.10;;;5.50;;
41755;SDS011;27435;48.480;9.258;2024-03-22T09:02:34;10.57;;;6.10;;
41755;SDS011;27435;48.480;9.258;2024-03-22T09:05:01;11.52;;;6.25;;
41755;SDS011;27435;48.480;9.258;2024-03-22T09:07:26;12.32;;;5.82;;
41755;SDS011;27435;48.480;9.258;2024-03-22T09:09:52;11.68;;;6.38;;
41755;SDS011;27435;48.480;9.258;2024-03-22T09:12:18;13.85;;;6.15;;
41755;SDS011;27435;48.480;9.258;2024-03-22T09:14:44;11.98;;;6.32;;
41755;SDS011;27435;48.480;9.258;2024-03-22T09:17:10;11.27;;;6.47;;
41755;SDS011;27435;48.480;9.258;2024-03-22T09:19:36;15.43;;;6.88;;
41755;SDS011;27435;48.480;9.258;2024-03-22T09:22:02;10.85;;;6.20;;
41755;SDS011;27435;48.480;9.258;2024-03-22T09:24:28;14.35;;;6.68;;
41755;SDS011;27435;48.480;9.258;2024-03-22T09:26:53;15.25;;;7.10;;
41755;SDS011;27435;48.480;9.258;2024-03-22T09:29:19;15.50;;;6.80;;
41755;SDS011;27435;48.480;9.258;2024-03-22T09:31:45;13.95;;;5.88;;
41755;SDS011;27435;48.480;9.258;2024-03-22T09:34:11;10.27;;;6.45;;
41755;SDS011;27435;48.480;9.258;2024-03-22T09:36:37;12.48;;;6.18;;
41755;SDS011;27435;48.480;9.258;2024-03-22T09:39:03;15.60;;;6.95;;
41755;SDS011;27435;48.480;9.258;2024-03-22T09:41:31;14.48;;;6.78;;
41755;SDS011;27435;48.480;9.258;2024-03-22T09:43:58;11.25;;;6.47;;
41755;SDS011;27435;48.480;9.258;2024-03-22T09:46:25;12.63;;;5.45;;
41755;SDS011;27435;48.480;9.258;2024-03-22T09:48:52;14.52;;;5.43;;
41755;SDS011;27435;48.480;9.258;2024-03-22T09:51:19;11.75;;;5.25;;
41755;SDS011;27435;48.480;9.258;2024-03-22T09:53:45;11.05;;;5.82;;
41755;SDS011;27435;48.480;9.258;2024-03-22T09:56:14;10.00;;;5.80;;
41755;SDS011;27435;48.480;9.258;2024-03-22T09:58:43;12.27;;;6.22;;
41755;SDS011;27435;48.480;9.258;2024-03-22T10:01:10;11.90;;;5.55;;
41755;SDS011;27435;48.480;9.258;2024-03-22T10:03:37;8.90;;;4.90;;
41755;SDS011;27435;48.480;9.258;2024-03-22T10:06:03;11.13;;;6.28;;
41755;SDS011;27435;48.480;9.258;2024-03-22T10:08:29;8.73;;;5.00;;
41755;SDS011;27435;48.480;9.258;2024-03-22T10:10:55;10.35;;;5.72;;
41755;SDS011;27435;48.480;9.258;2024-03-22T10:13:21;9.63;;;5.78;;
41755;SDS011;27435;48.480;9.258;2024-03-22T10:15:47;12.70;;;5.85;;
41755;SDS011;27435;48.480;9.258;2024-03-22T10:18:12;10.05;;;5.38;;
41755;SDS011;27435;48.480;9.258;2024-03-22T10:20:40;9.80;;;4.95;;
41755;SDS011;27435;48.480;9.258;2024-03-22T10:23:07;11.35;;;4.65;;
41755;SDS011;27435;48.480;9.258;2024-03-22T10:25:33;10.05;;;5.07;;
41755;SDS011;27435;48.480;9.258;2024-03-22T10:27:59;13.07;;;5.05;;
41755;SDS011;27435;48.480;9.258;2024-03-22T10:30:35;8.60;;;4.70;;
41755;SDS011;27435;48.480;9.258;2024-03-22T10:33:31;8.60;;;3.85;;
41755;SDS011;27435;48.480;9.258;2024-03-22T10:36:40;9.15;;;4.35;;
41755;SDS011;27435;48.480;9.258;2024-03-22T10:39:21;7.53;;;4.78;;
41755;SDS011;27435;48.480;9.258;2024-03-22T10:45:17;6.97;;;4.43;;
41755;SDS011;27435;48.480;9.258;2024-03-22T10:47:58;7.35;;;3.90;;
41755;SDS011;27435;48.480;9.258;2024-03-22T10:50:33;7.55;;;3.97;;
41755;SDS011;27435;48.480;9.258;2024-03-22T10:53:23;9.55;;;4.25;;
41755;SDS011;27435;48.480;9.258;2024-03-22T10:56:32;12.25;;;5.35;;
41755;SDS011;27435;48.480;9.258;2024-03-22T10:59:22;10.52;;;4.65;;
41755;SDS011;27435;48.480;9.258;2024-03-22T11:02:20;8.98;;;4.18;;
41755;SDS011;27435;48.480;9.258;2024-03-22T11:05:04;7.57;;;3.53;;
41755;SDS011;27435;48.480;9.258;2024-03-22T11:07:35;7.53;;;3.40;;
41755;SDS011;27435;48.480;9.258;2024-03-22T11:10:34;10.07;;;3.15;;
41755;SDS011;27435;48.480;9.258;2024-03-22T11:13:01;7.10;;;3.20;;
41755;SDS011;27435;48.480;9.258;2024-03-22T11:15:31;7.78;;;3.20;;
41755;SDS011;27435;48.480;9.258;2024-03-22T11:17:57;12.68;;;3.58;;
41755;SDS011;27435;48.480;9.258;2024-03-22T11:20:24;8.15;;;3.28;;
41755;SDS011;27435;48.480;9.258;2024-03-22T11:22:51;7.80;;;4.18;;
41755;SDS011;27435;48.480;9.258;2024-03-22T11:25:17;8.65;;;3.17;;
41755;SDS011;27435;48.480;9.258;2024-03-22T11:27:44;7.20;;;3.40;;
41755;SDS011;27435;48.480;9.258;2024-03-22T11:30:09;6.40;;;3.10;;
41755;SDS011;27435;48.480;9.258;2024-03-22T11:32:35;6.55;;;2.97;;
41755;SDS011;27435;48.480;9.258;2024-03-22T11:35:07;8.45;;;2.90;;
41755;SDS011;27435;48.480;9.258;2024-03-22T11:37:35;6.97;;;3.28;;
41755;SDS011;27435;48.480;9.258;2024-03-22T11:40:01;7.95;;;3.00;;
41755;SDS011;27435;48.480;9.258;2024-03-22T11:42:30;3.92;;;2.38;;
41755;SDS011;27435;48.480;9.258;2024-03-22T11:45:00;7.50;;;2.92;;
41755;SDS011;27435;48.480;9.258;2024-03-22T11:47:27;5.63;;;2.78;;
41755;SDS011;27435;48.480;9.258;2024-03-22T11:49:53;5.38;;;2.83;;
41755;SDS011;27435;48.480;9.258;2024-03-22T11:52:24;5.28;;;2.65;;
41755;SDS011;27435;48.480;9.258;2024-03-22T11:54:51;4.00;;;2.38;;
41755;SDS011;27435;48.480;9.258;2024-03-22T11:57:23;7.15;;;3.03;;
41755;SDS011;27435;48.480;9.258;2024-03-22T11:59:50;5.88;;;2.50;;
41755;SDS011;27435;48.480;9.258;2024-03-22T12:02:16;6.32;;;2.05;;
41755;SDS011;27435;48.480;9.258;2024-03-22T12:04:46;4.78;;;2.10;;
41755;SDS011;27435;48.480;9.258;2024-03-22T12:07:16;5.47;;;2.40;;
41755;SDS011;27435;48.480;9.258;2024-03-22T12:09:42;6.90;;;2.40;;
41755;SDS011;27435;48.480;9.258;2024-03-22T12:12:10;5.70;;;2.60;;
41755;SDS011;27435;48.480;9.258;2024-03-22T12:14:37;5.20;;;2.45;;
41755;SDS011;27435;48.480;9.258;2024-03-22T12:17:03;8.20;;;2.42;;
41755;SDS011;27435;48.480;9.258;2024-03-22T12:19:29;5.60;;;3.00;;
41755;SDS011;27435;48.480;9.258;2024-03-22T12:21:55;7.47;;;2.53;;
41755;SDS011;27435;48.480;9.258;2024-03-22T12:24:21;4.60;;;2.72;;
41755;SDS011;27435;48.480;9.258;2024-03-22T12:26:48;6.13;;;2.38;;
41755;SDS011;27435;48.480;9.258;2024-03-22T12:29:15;9.02;;;3.55;;
41755;SDS011;27435;48.480;9.258;2024-03-22T12:31:41;5.63;;;2.97;;
41755;SDS011;27435;48.480;9.258;2024-03-22T12:34:07;4.13;;;2.33;;
41755;SDS011;27435;48.480;9.258;2024-03-22T12:36:33;7.72;;;2.33;;
41755;SDS011;27435;48.480;9.258;2024-03-22T12:38:58;8.15;;;2.22;;
41755;SDS011;27435;48.480;9.258;2024-03-22T12:41:24;5.75;;;2.10;;
41755;SDS011;27435;48.480;9.258;2024-03-22T12:43:50;6.32;;;2.40;;
41755;SDS011;27435;48.480;9.258;2024-03-22T12:46:16;8.98;;;2.55;;
41755;SDS011;27435;48.480;9.258;2024-03-22T12:48:41;6.90;;;2.40;;
41755;SDS011;27435;48.480;9.258;2024-03-22T12:51:07;11.90;;;2.20;;
41755;SDS011;27435;48.480;9.258;2024-03-22T12:53:33;4.88;;;2.08;;
41755;SDS011;27435;48.480;9.258;2024-03-22T12:55:58;5.13;;;2.28;;
41755;SDS011;27435;48.480;9.258;2024-03-22T12:58:24;4.25;;;2.10;;
41755;SDS011;27435;48.480;9.258;2024-03-22T13:00:49;5.35;;;2.13;;
41755;SDS011;27435;48.480;9.258;2024-03-22T13:03:15;6.32;;;2.05;;
41755;SDS011;27435;48.480;9.258;2024-03-22T13:05:41;3.17;;;1.67;;
41755;SDS011;27435;48.480;9.258;2024-03-22T13:08:07;8.50;;;2.00;;
41755;SDS011;27435;48.480;9.258;2024-03-22T13:10:33;5.15;;;1.90;;
41755;SDS011;27435;48.480;9.258;2024-03-22T13:12:59;4.88;;;2.20;;
41755;SDS011;27435;48.480;9.258;2024-03-22T13:15:24;5.97;;;2.75;;
41755;SDS011;27435;48.480;9.258;2024-03-22T13:17:50;4.30;;;1.85;;
41755;SDS011;27435;48.480;9.258;2024-03-22T13:20:17;4.70;;;1.85;;
41755;SDS011;27435;48.480;9.258;2024-03-22T13:22:44;8.75;;;1.83;;
41755;SDS011;27435;48.480;9.258;2024-03-22T13:25:09;4.57;;;1.70;;
41755;SDS011;27435;48.480;9.258;2024-03-22T13:27:36;4.90;;;2.00;;
41755;SDS011;27435;48.480;9.258;2024-03-22T13:30:05;3.78;;;2.00;;
41755;SDS011;27435;48.480;9.258;2024-03-22T13:32:35;5.38;;;1.73;;
41755;SDS011;27435;48.480;9.258;2024-03-22T13:35:04;3.55;;;1.73;;
41755;SDS011;27435;48.480;9.258;2024-03-22T13:37:30;2.75;;;1.52;;
41755;SDS011;27435;48.480;9.258;2024-03-22T13:39:56;10.68;;;3.05;;
41755;SDS011;27435;48.480;9.258;2024-03-22T13:42:22;6.05;;;1.80;;
41755;SDS011;27435;48.480;9.258;2024-03-22T13:44:48;3.08;;;1.35;;
41755;SDS011;27435;48.480;9.258;2024-03-22T13:47:14;3.85;;;1.25;;
41755;SDS011;27435;48.480;9.258;2024-03-22T13:49:39;2.88;;;1.45;;
41755;SDS011;27435;48.480;9.258;2024-03-22T13:52:06;5.47;;;1.10;;
41755;SDS011;27435;48.480;9.258;2024-03-22T13:54:32;3.53;;;1.30;;
41755;SDS011;27435;48.480;9.258;2024-03-22T13:56:58;2.67;;;1.00;;
41755;SDS011;27435;48.480;9.258;2024-03-22T13:59:25;3.08;;;1.15;;
41755;SDS011;27435;48.480;9.258;2024-03-22T14:01:51;6.22;;;1.50;;
41755;SDS011;27435;48.480;9.258;2024-03-22T14:04:17;2.05;;;1.10;;
41755;SDS011;27435;48.480;9.258;2024-03-22T14:06:44;4.43;;;0.90;;
41755;SDS011;27435;48.480;9.258;2024-03-22T14:09:10;4.00;;;1.40;;
41755;SDS011;27435;48.480;9.258;2024-03-22T14:11:38;2.83;;;1.20;;
41755;SDS011;27435;48.480;9.258;2024-03-22T14:14:04;1.58;;;0.75;;
41755;SDS011;27435;48.480;9.258;2024-03-22T14:16:29;8.02;;;0.70;;
41755;SDS011;27435;48.480;9.258;2024-03-22T14:18:55;2.03;;;1.10;;
41755;SDS011;27435;48.480;9.258;2024-03-22T14:21:21;4.13;;;0.73;;
41755;SDS011;27435;48.480;9.258;2024-03-22T14:23:46;2.00;;;0.80;;
41755;SDS011;27435;48.480;9.258;2024-03-22T14:26:16;3.20;;;1.25;;
41755;SDS011;27435;48.480;9.258;2024-03-22T14:28:42;1.90;;;0.90;;
41755;SDS011;27435;48.480;9.258;2024-03-22T14:31:08;2.53;;;1.17;;